Time;durP1;ratioP1;P1;durP2;ratioP2;P2;SDS_P1;SDS_P2;PMS_P1;PMS_P2;Temp;Humidity;BMP_temperature;BMP_pressure;BME280_temperature;BME280_humidity;BME280_pressure;Samples;Min_cycle;Max_cycle;Signal;HPM_P1;HPM_P2
2023/05/04 00:00:43;;;;;;;406.67;228.20;;;;;20.90;101188.00;;;;2052805;28;20234;-75
2023/05/04 00:01:43;;;;;;;340.17;188.20;;;;;20.90;101191.00;;;;2048993;28;20216;-75
2023/05/04 00:02:44;;;;;;;432.77;240.97;;;;;20.80;101180.00;;;;2054288;28;20222;-75
2023/05/04 00:03:44;;;;;;;326.50;183.60;;;;;20.90;101192.00;;;;2063688;28;20292;-75
2023/05/04 00:04:44;;;;;;;368.90;204.13;;;;;20.90;101189.00;;;;2053639;28;20214;-75
2023/05/04 00:05:45;;;;;;;349.00;189.67;;;;;20.90;101181.00;;;;2057391;28;20215;-75
2023/05/04 00:06:46;;;;;;;309.67;170.37;;;;;20.90;101174.00;;;;2054269;28;20272;-75
2023/05/04 00:07:46;;;;;;;371.50;202.80;;;;;20.90;101173.00;;;;2053379;28;20219;-75
2023/05/04 00:08:46;;;;;;;362.30;196.03;;;;;20.90;101172.00;;;;2058264;28;20253;-75
2023/05/04 00:09:48;;;;;;;386.37;211.00;;;;;20.90;101176.00;;;;2061379;28;20210;-75
2023/05/04 00:10:48;;;;;;;315.27;173.10;;;;;20.90;101179.00;;;;2053967;28;20211;-75
2023/05/04 00:11:49;;;;;;;348.93;187.17;;;;;20.90;101175.00;;;;2054803;28;20241;-75
2023/05/04 00:12:49;;;;;;;308.27;173.67;;;;;20.90;101172.00;;;;2052844;28;20234;-75
2023/05/04 00:13:49;;;;;;;308.57;169.97;;;;;20.90;101176.00;;;;2060091;28;20225;-75
2023/05/04 00:14:50;;;;;;;316.40;169.93;;;;;20.90;101181.00;;;;2047593;28;20225;-75
2023/05/04 00:15:50;;;;;;;312.57;167.07;;;;;20.90;101183.00;;;;2045945;28;20232;-75
2023/05/04 00:16:51;;;;;;;316.43;170.17;;;;;20.90;101177.00;;;;2055878;28;20300;-75
2023/05/04 00:17:51;;;;;;;345.07;183.77;;;;;20.90;101180.00;;;;2052207;28;20219;-75
2023/05/04 00:18:52;;;;;;;306.70;165.73;;;;;20.80;101175.00;;;;2046048;28;20463;-75
2023/05/04 00:19:52;;;;;;;287.07;157.30;;;;;20.90;101185.00;;;;2050020;28;20221;-75
2023/05/04 00:20:52;;;;;;;278.40;149.50;;;;;20.80;101163.00;;;;2053712;28;20223;-75
2023/05/04 00:21:53;;;;;;;272.93;147.90;;;;;20.80;101171.00;;;;2058055;28;20237;-75
2023/05/04 00:22:53;;;;;;;370.80;199.10;;;;;20.80;101179.00;;;;2054238;28;20211;-75
2023/05/04 00:23:53;;;;;;;251.47;137.97;;;;;20.80;101174.00;;;;2052932;28;20218;-75
2023/05/04 00:24:54;;;;;;;316.60;170.13;;;;;20.90;101173.00;;;;2051975;28;20215;-75
2023/05/04 00:25:54;;;;;;;253.57;141.87;;;;;20.80;101169.00;;;;2045948;28;20242;-75
2023/05/04 00:26:54;;;;;;;261.40;142.30;;;;;20.80;101165.00;;;;2055263;28;20280;-74
2023/05/04 00:27:55;;;;;;;282.40;153.57;;;;;20.80;101170.00;;;;2053072;28;20222;-74
2023/05/04 00:28:56;;;;;;;282.53;148.27;;;;;20.80;101175.00;;;;2047710;28;20220;-74
2023/05/04 00:29:56;;;;;;;334.83;175.17;;;;;20.80;101164.00;;;;2052451;28;20447;-75
2023/05/04 00:30:56;;;;;;;279.47;150.20;;;;;20.90;101167.00;;;;2047305;28;20227;-75
2023/05/04 00:31:57;;;;;;;312.80;165.13;;;;;20.80;101163.00;;;;2053183;28;20594;-75
2023/05/04 00:32:57;;;;;;;244.80;134.17;;;;;20.80;101155.00;;;;2054520;28;20257;-75
2023/05/04 00:33:57;;;;;;;285.17;154.20;;;;;20.80;101158.00;;;;2048387;28;20223;-75
2023/05/04 00:34:58;;;;;;;262.73;144.03;;;;;20.80;101156.00;;;;2066806;28;20224;-75
2023/05/04 00:35:58;;;;;;;210.40;119.33;;;;;20.80;101154.00;;;;2052562;28;20299;-75
2023/05/04 00:36:59;;;;;;;252.63;134.53;;;;;20.80;101149.00;;;;2053081;28;20215;-75
2023/05/04 00:38:02;;;;;;;228.18;130.50;;;;;20.80;101161.00;;;;2054918;28;20222;-75
2023/05/04 00:39:02;;;;;;;272.48;144.63;;;;;20.80;101167.00;;;;2050124;28;20219;-75
2023/05/04 00:40:03;;;;;;;200.13;115.03;;;;;20.80;101161.00;;;;2058569;28;20697;-75
2023/05/04 00:41:03;;;;;;;203.27;113.97;;;;;20.80;101156.00;;;;2052234;28;20235;-75
2023/05/04 00:42:03;;;;;;;202.80;113.50;;;;;20.80;101164.00;;;;2048460;28;20318;-75
2023/05/04 00:43:04;;;;;;;189.37;107.50;;;;;20.80;101164.00;;;;2057222;28;20207;-75
2023/05/04 00:44:04;;;;;;;218.73;116.33;;;;;20.80;101159.00;;;;2055030;28;20223;-75
2023/05/04 00:45:05;;;;;;;235.33;125.37;;;;;20.80;101161.00;;;;2056918;28;20225;-75
2023/05/04 00:46:05;;;;;;;240.40;130.23;;;;;20.80;101158.00;;;;2047561;28;20311;-75
2023/05/04 00:47:06;;;;;;;189.10;106.87;;;;;20.80;101156.00;;;;2046024;28;20207;-75
2023/05/04 00:48:07;;;;;;;216.35;118.40;;;;;20.80;101144.00;;;;2051986;28;20265;-75
2023/05/04 00:49:07;;;;;;;199.53;110.17;;;;;20.80;101153.00;;;;2052853;28;20280;-75
2023/05/04 00:50:08;;;;;;;181.53;104.50;;;;;20.80;101149.00;;;;2052059;28;20206;-75
2023/05/04 00:51:10;;;;;;;193.48;110.30;;;;;20.80;101153.00;;;;2054538;28;20783;-75
2023/05/04 00:52:13;;;;;;;194.38;104.43;;;;;20.80;101148.00;;;;2047984;28;20218;-75
2023/05/04 00:53:13;;;;;;;248.13;128.90;;;;;20.80;101152.00;;;;2060643;28;20222;-75
2023/05/04 00:54:16;;;;;;;175.80;102.27;;;;;20.80;101144.00;;;;2055855;28;20206;-75
2023/05/04 00:55:16;;;;;;;156.57;95.68;;;;;20.80;101145.00;;;;2044714;28;20204;-75
2023/05/04 00:56:17;;;;;;;172.53;97.97;;;;;20.80;101145.00;;;;2042249;28;20287;-75
2023/05/04 00:57:17;;;;;;;172.93;100.50;;;;;20.80;101145.00;;;;2039731;28;20228;-75
2023/05/04 00:58:18;;;;;;;203.00;111.10;;;;;20.80;101147.00;;;;2047487;28;20665;-75
2023/05/04 00:59:18;;;;;;;157.17;91.00;;;;;20.80;101143.00;;;;2053626;28;20232;-75
2023/05/04 01:00:18;;;;;;;187.40;104.17;;;;;20.80;101139.00;;;;2056617;28;20234;-75
2023/05/04 01:01:20;;;;;;;170.90;94.50;;;;;20.80;101142.00;;;;2052324;28;20264;-75
2023/05/04 01:02:21;;;;;;;152.38;88.03;;;;;20.80;101136.00;;;;2049851;28;20249;-75
2023/05/04 01:03:21;;;;;;;151.90;85.03;;;;;20.70;101139.00;;;;2056412;28;20215;-75
2023/05/04 01:04:21;;;;;;;176.10;96.83;;;;;20.70;101137.00;;;;2055307;28;20218;-75
2023/05/04 01:05:22;;;;;;;163.13;92.43;;;;;20.70;101129.00;;;;2044902;28;20211;-75
2023/05/04 01:06:40;;;;;;;167.90;94.33;;;;;20.70;101142.00;;;;2044381;28;20216;-75
2023/05/04 01:08:06;;;;;;;209.18;115.05;;;;;20.70;101140.00;;;;2038476;28;20455;-75
2023/05/04 01:09:27;;;;;;;150.30;82.90;;;;;20.80;101137.00;;;;2044863;28;20305;-75
2023/05/04 01:10:38;;;;;;;151.20;86.72;;;;;20.70;101135.00;;;;2050053;28;20218;-75
2023/05/04 01:11:47;;;;;;;163.68;91.53;;;;;20.70;101127.00;;;;2047166;28;20786;-75
2023/05/04 01:12:51;;;;;;;146.40;82.30;;;;;20.70;101127.00;;;;2038307;28;20224;-75
2023/05/04 01:13:51;;;;;;;139.32;80.93;;;;;20.70;101132.00;;;;2052134;28;20246;-75
2023/05/04 01:14:52;;;;;;;134.43;77.60;;;;;20.70;101130.00;;;;2055949;28;20218;-75
2023/05/04 01:15:53;;;;;;;141.48;79.40;;;;;20.70;101132.00;;;;2046244;28;20230;-75
2023/05/04 01:16:54;;;;;;;138.47;81.40;;;;;20.70;101133.00;;;;2058849;28;20212;-75
2023/05/04 01:17:55;;;;;;;154.38;88.32;;;;;20.70;101128.00;;;;2053695;28;20218;-75
2023/05/04 01:18:55;;;;;;;143.77;81.97;;;;;20.70;101130.00;;;;2054380;28;20222;-75
2023/05/04 01:19:55;;;;;;;149.60;86.60;;;;;20.70;101133.00;;;;2056309;28;20217;-75
2023/05/04 01:20:56;;;;;;;110.47;65.20;;;;;20.70;101124.00;;;;2052047;28;20309;-75
2023/05/04 01:21:56;;;;;;;145.03;82.90;;;;;20.70;101128.00;;;;2060882;28;20225;-75
2023/05/04 01:22:57;;;;;;;114.57;67.20;;;;;20.70;101123.00;;;;2061361;28;20219;-75
2023/05/04 01:23:57;;;;;;;140.93;77.70;;;;;20.70;101126.00;;;;2055136;28;20219;-74
2023/05/04 01:24:58;;;;;;;132.23;76.67;;;;;20.70;101121.00;;;;2057260;28;20713;-74
2023/05/04 01:26:24;;;;;;;126.50;72.33;;;;;20.60;101124.00;;;;2051781;28;20630;-74
2023/05/04 01:27:35;;;;;;;118.85;66.90;;;;;20.70;101123.00;;;;2039987;28;20219;-74
2023/05/04 01:28:41;;;;;;;105.05;59.53;;;;;20.70;101119.00;;;;2041107;28;20255;-74
2023/05/04 01:29:48;;;;;;;132.43;73.57;;;;;20.70;101108.00;;;;2052646;28;20210;-74
2023/05/04 01:30:50;;;;;;;120.70;68.18;;;;;20.70;101108.00;;;;2054332;28;20243;-74
2023/05/04 01:31:51;;;;;;;111.80;62.78;;;;;20.70;101107.00;;;;2038849;28;20220;-74
2023/05/04 01:32:51;;;;;;;101.27;59.60;;;;;20.70;101113.00;;;;2038239;28;20216;-74
2023/05/04 01:33:52;;;;;;;104.10;59.93;;;;;20.70;101111.00;;;;2038757;28;20315;-74
2023/05/04 01:34:52;;;;;;;120.00;69.17;;;;;20.70;101109.00;;;;2031268;28;20228;-74
2023/05/04 01:35:52;;;;;;;133.37;74.03;;;;;20.60;101112.00;;;;2039296;28;20212;-74
2023/05/04 01:36:52;;;;;;;121.53;68.77;;;;;20.60;101108.00;;;;2048488;28;20337;-74
2023/05/04 01:37:53;;;;;;;116.70;64.37;;;;;20.60;101102.00;;;;2055103;28;20218;-74
2023/05/04 01:38:54;;;;;;;142.57;80.97;;;;;20.60;101114.00;;;;2054264;28;20221;-74
2023/05/04 01:39:55;;;;;;;113.82;63.25;;;;;20.60;101108.00;;;;2053704;28;20218;-74
2023/05/04 01:40:55;;;;;;;152.07;84.37;;;;;20.60;101110.00;;;;2052528;28;20229;-74
2023/05/04 01:41:56;;;;;;;114.20;66.60;;;;;20.60;101110.00;;;;2057341;28;20698;-73
2023/05/04 01:42:56;;;;;;;103.17;57.67;;;;;20.60;101111.00;;;;2056726;28;20269;-74
2023/05/04 01:43:57;;;;;;;99.93;59.00;;;;;20.60;101114.00;;;;2050926;28;20225;-74
2023/05/04 01:44:57;;;;;;;105.13;58.87;;;;;20.60;101118.00;;;;2060849;28;20222;-74
2023/05/04 01:45:57;;;;;;;87.77;52.70;;;;;20.60;101124.00;;;;2057790;28;20222;-74
2023/05/04 01:46:58;;;;;;;101.40;55.30;;;;;20.60;101118.00;;;;2053358;28;20227;-74
2023/05/04 01:47:58;;;;;;;100.70;57.77;;;;;20.60;101119.00;;;;2054518;28;20258;-74
2023/05/04 01:48:58;;;;;;;102.03;54.17;;;;;20.60;101112.00;;;;2054263;28;20211;-74
2023/05/04 01:49:58;;;;;;;99.90;53.90;;;;;20.60;101111.00;;;;2053383;28;20223;-74
2023/05/04 01:50:59;;;;;;;91.20;54.03;;;;;20.60;101121.00;;;;2055515;28;20214;-74
2023/05/04 01:51:59;;;;;;;94.57;52.03;;;;;20.60;101115.00;;;;2052666;28;20786;-74
2023/05/04 01:52:59;;;;;;;96.17;51.30;;;;;20.60;101110.00;;;;2053533;28;20215;-74
2023/05/04 01:54:00;;;;;;;89.23;50.43;;;;;20.60;101105.00;;;;2054960;28;20237;-74
2023/05/04 01:55:00;;;;;;;100.50;53.10;;;;;20.60;101121.00;;;;2046428;28;20710;-73
2023/05/04 01:56:01;;;;;;;97.17;54.17;;;;;20.60;101117.00;;;;2037132;28;20223;-73
2023/05/04 01:57:01;;;;;;;84.27;51.50;;;;;20.70;101117.00;;;;2046240;28;20231;-73
2023/05/04 01:58:01;;;;;;;84.97;48.13;;;;;20.70;101120.00;;;;2048323;28;20211;-73
2023/05/04 01:59:02;;;;;;;78.47;47.77;;;;;20.70;101118.00;;;;2045717;28;20297;-73
2023/05/04 02:00:02;;;;;;;86.67;50.47;;;;;20.60;101118.00;;;;2045544;28;20223;-73
2023/05/04 02:01:03;;;;;;;83.13;49.10;;;;;20.60;101113.00;;;;2046935;28;20645;-73
2023/05/04 02:02:03;;;;;;;72.40;43.47;;;;;20.70;101110.00;;;;2040085;28;20920;-73
2023/05/04 02:03:03;;;;;;;70.97;41.53;;;;;20.60;101110.00;;;;2047464;28;20245;-73
2023/05/04 02:04:04;;;;;;;69.97;43.27;;;;;20.60;101111.00;;;;2057137;28;20236;-73
2023/05/04 02:05:04;;;;;;;63.67;40.47;;;;;20.60;101106.00;;;;2055673;28;20238;-73
2023/05/04 02:06:05;;;;;;;67.83;39.70;;;;;20.60;101115.00;;;;2061782;28;20604;-73
2023/05/04 02:07:05;;;;;;;60.67;38.77;;;;;20.70;101107.00;;;;2051362;28;20583;-73
2023/05/04 02:08:05;;;;;;;60.17;35.90;;;;;20.70;101101.00;;;;2050712;28;20246;-73
2023/05/04 02:09:06;;;;;;;59.90;38.40;;;;;20.70;101112.00;;;;2053790;28;20219;-73
2023/05/04 02:10:07;;;;;;;63.67;38.67;;;;;20.70;101099.00;;;;2042730;28;20223;-73
2023/05/04 02:11:07;;;;;;;54.40;33.45;;;;;20.70;101109.00;;;;2053959;28;20199;-74
2023/05/04 02:12:08;;;;;;;51.77;34.50;;;;;20.70;101109.00;;;;2053349;28;20749;-73
2023/05/04 02:13:08;;;;;;;63.43;37.57;;;;;20.70;101109.00;;;;2054928;28;20200;-74
2023/05/04 02:14:08;;;;;;;57.57;36.90;;;;;20.70;101112.00;;;;2062034;28;20202;-74
2023/05/04 02:15:09;;;;;;;52.47;32.30;;;;;20.70;101103.00;;;;2060144;28;20210;-73
2023/05/04 02:16:10;;;;;;;51.63;32.70;;;;;20.70;101106.00;;;;2053399;28;20216;-74
2023/05/04 02:17:10;;;;;;;51.27;33.30;;;;;20.70;101105.00;;;;2061289;28;20449;-74
2023/05/04 02:18:10;;;;;;;67.37;37.03;;;;;20.70;101104.00;;;;2060617;28;20212;-74
2023/05/04 02:19:11;;;;;;;48.27;30.37;;;;;20.70;101102.00;;;;2053200;28;20207;-75
2023/05/04 02:20:12;;;;;;;53.10;32.00;;;;;20.70;101108.00;;;;2054626;28;20207;-74
2023/05/04 02:21:12;;;;;;;47.53;30.30;;;;;20.60;101101.00;;;;2053963;28;20285;-74
2023/05/04 02:22:13;;;;;;;50.67;31.97;;;;;20.60;101108.00;;;;2053065;28;21004;-74
2023/05/04 02:23:13;;;;;;;47.13;30.70;;;;;20.60;101111.00;;;;2052012;28;20213;-74
2023/05/04 02:24:13;;;;;;;43.10;27.47;;;;;20.60;101108.00;;;;2051829;28;20473;-73
2023/05/04 02:25:13;;;;;;;48.90;30.87;;;;;20.60;101111.00;;;;2060849;28;20273;-73
2023/05/04 02:26:14;;;;;;;49.67;31.00;;;;;20.60;101114.00;;;;2060400;28;20221;-73
2023/05/04 02:27:14;;;;;;;44.17;27.10;;;;;20.60;101101.00;;;;2058437;28;20207;-73
2023/05/04 02:28:15;;;;;;;41.23;26.83;;;;;20.60;101104.00;;;;2061732;28;20264;-73
2023/05/04 02:29:15;;;;;;;41.10;27.03;;;;;20.60;101112.00;;;;2053409;28;20291;-74
2023/05/04 02:30:15;;;;;;;37.73;25.00;;;;;20.60;101102.00;;;;2054551;28;20208;-74
2023/05/04 02:31:16;;;;;;;39.93;24.87;;;;;20.60;101108.00;;;;2050370;28;20216;-74
2023/05/04 02:32:16;;;;;;;37.47;24.90;;;;;20.60;101105.00;;;;2053899;28;20211;-74
2023/05/04 02:33:16;;;;;;;37.80;24.47;;;;;20.60;101099.00;;;;2053395;28;20229;-73
2023/05/04 02:34:17;;;;;;;36.97;22.90;;;;;20.60;101105.00;;;;2061455;28;20218;-73
2023/05/04 02:35:17;;;;;;;38.27;24.67;;;;;20.60;101094.00;;;;2054759;28;20204;-74
2023/05/04 02:36:17;;;;;;;36.83;23.47;;;;;20.60;101094.00;;;;2054344;28;20218;-74
2023/05/04 02:37:18;;;;;;;36.47;22.80;;;;;20.50;101093.00;;;;2054676;28;20214;-74
2023/05/04 02:38:18;;;;;;;34.97;22.47;;;;;20.50;101102.00;;;;2055861;28;20219;-74
2023/05/04 02:39:19;;;;;;;39.80;24.03;;;;;20.60;101106.00;;;;2054394;28;20210;-74
2023/05/04 02:40:19;;;;;;;34.13;22.80;;;;;20.60;101094.00;;;;2054967;28;20215;-74
2023/05/04 02:41:20;;;;;;;34.10;21.80;;;;;20.60;101088.00;;;;2052052;28;20220;-74
2023/05/04 02:42:21;;;;;;;29.27;19.80;;;;;20.50;101099.00;;;;2051070;28;20279;-74
2023/05/04 02:43:21;;;;;;;32.03;21.23;;;;;20.50;101096.00;;;;2048784;28;20232;-74
2023/05/04 02:44:22;;;;;;;35.60;23.27;;;;;20.50;101103.00;;;;2052339;28;20593;-74
2023/05/04 02:45:22;;;;;;;36.87;23.13;;;;;20.50;101093.00;;;;2053939;28;20630;-74
2023/05/04 02:46:24;;;;;;;28.77;18.50;;;;;20.50;101099.00;;;;2054854;28;20585;-73
2023/05/04 02:47:24;;;;;;;32.95;21.70;;;;;20.50;101093.00;;;;2055742;28;20258;-74
2023/05/04 02:48:24;;;;;;;29.10;20.30;;;;;20.50;101096.00;;;;2056705;28;20698;-74
2023/05/04 02:49:25;;;;;;;29.47;20.00;;;;;20.50;101095.00;;;;2053268;28;20769;-74
2023/05/04 02:50:25;;;;;;;28.50;18.20;;;;;20.50;101100.00;;;;2052537;28;20784;-74
2023/05/04 02:51:25;;;;;;;27.67;18.50;;;;;20.50;101094.00;;;;2049970;28;20242;-73
2023/05/04 02:52:26;;;;;;;23.50;17.10;;;;;20.50;101092.00;;;;2051023;28;20211;-73
2023/05/04 02:53:26;;;;;;;31.03;20.10;;;;;20.50;101096.00;;;;2049389;28;20211;-73
2023/05/04 02:54:26;;;;;;;26.70;18.67;;;;;20.50;101094.00;;;;2055297;28;20670;-73
2023/05/04 02:55:27;;;;;;;29.40;20.27;;;;;20.50;101093.00;;;;2056690;28;20705;-73
2023/05/04 02:56:27;;;;;;;29.37;20.80;;;;;20.50;101095.00;;;;2061594;28;20214;-73
2023/05/04 02:57:27;;;;;;;25.47;17.27;;;;;20.50;101091.00;;;;2058266;28;20222;-73
2023/05/04 02:58:28;;;;;;;23.70;16.40;;;;;20.50;101096.00;;;;2055844;28;20219;-73
2023/05/04 02:59:28;;;;;;;26.63;18.07;;;;;20.50;101091.00;;;;2055116;28;20207;-73
2023/05/04 03:00:28;;;;;;;36.27;23.03;;;;;20.50;101088.00;;;;2057544;28;20241;-73
2023/05/04 03:01:29;;;;;;;24.43;16.23;;;;;20.50;101086.00;;;;2056800;28;20279;-73
2023/05/04 03:02:29;;;;;;;23.07;16.47;;;;;20.50;101089.00;;;;2061792;28;20210;-73
2023/05/04 03:03:30;;;;;;;26.13;18.20;;;;;20.50;101084.00;;;;2064005;28;20237;-73
2023/05/04 03:04:30;;;;;;;26.90;18.43;;;;;20.50;101089.00;;;;2059107;28;20206;-73
2023/05/04 03:05:30;;;;;;;26.43;16.67;;;;;20.50;101088.00;;;;2049139;28;20633;-73
2023/05/04 03:06:31;;;;;;;25.67;18.60;;;;;20.50;101083.00;;;;2051449;28;20230;-73
2023/05/04 03:07:31;;;;;;;23.47;15.53;;;;;20.50;101082.00;;;;2052080;28;20239;-73
2023/05/04 03:08:31;;;;;;;25.47;17.80;;;;;20.50;101079.00;;;;2056942;28;20206;-73
2023/05/04 03:09:32;;;;;;;24.80;15.70;;;;;20.50;101079.00;;;;2061602;28;20210;-73
2023/05/04 03:10:32;;;;;;;21.93;15.90;;;;;20.50;101081.00;;;;2056069;28;20203;-73
2023/05/04 03:11:32;;;;;;;25.23;15.43;;;;;20.50;101083.00;;;;2060960;28;20213;-73
2023/05/04 03:12:33;;;;;;;24.67;15.87;;;;;20.50;101086.00;;;;2060128;28;20543;-73
2023/05/04 03:13:33;;;;;;;23.57;15.00;;;;;20.40;101090.00;;;;2057094;28;20276;-73
2023/05/04 03:14:33;;;;;;;21.50;15.40;;;;;20.50;101082.00;;;;2054860;28;20214;-73
2023/05/04 03:15:34;;;;;;;20.00;14.00;;;;;20.50;101082.00;;;;2054910;28;20652;-73
2023/05/04 03:16:34;;;;;;;20.83;14.87;;;;;20.50;101073.00;;;;2054581;28;20288;-73
2023/05/04 03:17:35;;;;;;;19.40;13.30;;;;;20.40;101069.00;;;;2050415;28;20220;-73
2023/05/04 03:18:35;;;;;;;18.67;13.23;;;;;20.40;101089.00;;;;2044621;28;20277;-73
2023/05/04 03:19:36;;;;;;;20.17;14.23;;;;;20.40;101076.00;;;;2055175;28;20982;-73
2023/05/04 03:20:36;;;;;;;22.70;14.87;;;;;20.40;101080.00;;;;2053642;28;20648;-73
2023/05/04 03:21:36;;;;;;;21.23;14.03;;;;;20.40;101082.00;;;;2052918;28;20222;-73
2023/05/04 03:22:37;;;;;;;21.50;13.80;;;;;20.40;101079.00;;;;2053814;28;20218;-73
2023/05/04 03:23:37;;;;;;;20.20;14.17;;;;;20.40;101075.00;;;;2054478;28;20282;-73
2023/05/04 03:24:38;;;;;;;21.13;15.40;;;;;20.40;101079.00;;;;2051756;28;20222;-73
2023/05/04 03:25:38;;;;;;;17.17;12.48;;;;;20.40;101070.00;;;;2052598;28;20583;-73
2023/05/04 03:26:39;;;;;;;18.27;13.00;;;;;20.40;101075.00;;;;2059453;28;20224;-73
2023/05/04 03:27:39;;;;;;;15.83;11.20;;;;;20.40;101077.00;;;;2054807;28;20230;-73
2023/05/04 03:28:40;;;;;;;18.03;12.77;;;;;20.40;101074.00;;;;2052529;28;20254;-73
2023/05/04 03:29:40;;;;;;;16.13;11.70;;;;;20.40;101077.00;;;;2056439;28;20234;-73
2023/05/04 03:30:40;;;;;;;14.80;11.20;;;;;20.40;101067.00;;;;2056986;28;20230;-73
2023/05/04 03:31:41;;;;;;;16.23;11.33;;;;;20.40;101069.00;;;;2053584;28;20211;-73
2023/05/04 03:32:41;;;;;;;20.57;12.03;;;;;20.40;101067.00;;;;2049238;28;20702;-73
2023/05/04 03:33:41;;;;;;;18.50;12.23;;;;;20.40;101072.00;;;;2047924;28;20219;-74
2023/05/04 03:34:44;;;;;;;16.17;11.90;;;;;20.40;101065.00;;;;2049732;28;20221;-74
2023/05/04 03:35:44;;;;;;;18.05;11.88;;;;;20.40;101065.00;;;;2047503;28;20230;-74
2023/05/04 03:36:45;;;;;;;15.60;11.30;;;;;20.40;101065.00;;;;2050083;28;20604;-74
2023/05/04 03:37:45;;;;;;;16.90;11.60;;;;;20.40;101067.00;;;;2053487;28;20589;-74
2023/05/04 03:38:45;;;;;;;15.67;11.10;;;;;20.40;101059.00;;;;2053363;28;20730;-74
2023/05/04 03:39:46;;;;;;;14.93;10.77;;;;;20.40;101054.00;;;;2059632;28;20279;-74
2023/05/04 03:40:46;;;;;;;14.63;10.70;;;;;20.40;101057.00;;;;2050071;28;20234;-74
2023/05/04 03:41:46;;;;;;;14.57;10.67;;;;;20.40;101062.00;;;;2052450;28;20219;-74
2023/05/04 03:42:47;;;;;;;18.13;11.43;;;;;20.40;101061.00;;;;2059228;28;20272;-74
2023/05/04 03:43:48;;;;;;;15.10;10.03;;;;;20.40;101060.00;;;;2053569;28;20218;-74
2023/05/04 03:44:48;;;;;;;14.47;9.47;;;;;20.40;101062.00;;;;2061667;28;20450;-74
2023/05/04 03:45:48;;;;;;;14.70;10.20;;;;;20.40;101057.00;;;;2050299;28;20210;-74
2023/05/04 03:46:49;;;;;;;15.80;11.10;;;;;20.40;101063.00;;;;2054034;28;20215;-74
2023/05/04 03:47:49;;;;;;;12.30;9.63;;;;;20.40;101067.00;;;;2057941;28;20246;-74
2023/05/04 03:48:49;;;;;;;15.97;10.77;;;;;20.40;101063.00;;;;2052245;28;20215;-74
2023/05/04 03:49:50;;;;;;;16.43;10.27;;;;;20.40;101065.00;;;;2053730;28;20265;-74
2023/05/04 03:50:50;;;;;;;13.03;10.10;;;;;20.40;101061.00;;;;2051177;28;20211;-74
2023/05/04 03:51:50;;;;;;;17.90;11.67;;;;;20.40;101066.00;;;;2046215;28;20222;-74
2023/05/04 03:52:51;;;;;;;16.00;11.43;;;;;20.40;101068.00;;;;2060158;28;20214;-74
2023/05/04 03:53:51;;;;;;;13.60;9.30;;;;;20.40;101065.00;;;;2054228;28;20211;-74
2023/05/04 03:54:52;;;;;;;12.40;8.80;;;;;20.30;101060.00;;;;2053545;28;20225;-74
2023/05/04 03:55:52;;;;;;;13.60;9.60;;;;;20.30;101064.00;;;;2061518;28;20271;-74
2023/05/04 03:56:52;;;;;;;13.57;10.20;;;;;20.30;101061.00;;;;2060972;28;20214;-73
2023/05/04 03:57:52;;;;;;;13.03;9.10;;;;;20.30;101056.00;;;;2053591;28;20234;-75
2023/05/04 03:58:53;;;;;;;13.83;9.47;;;;;20.30;101065.00;;;;2053757;28;20289;-75
2023/05/04 03:59:53;;;;;;;14.07;9.23;;;;;20.30;101067.00;;;;2046447;28;20943;-75
2023/05/04 04:00:53;;;;;;;15.37;8.93;;;;;20.30;101061.00;;;;2043474;28;20238;-75
2023/05/04 04:01:54;;;;;;;12.43;8.97;;;;;20.30;101072.00;;;;2057900;28;20226;-74
2023/05/04 04:02:54;;;;;;;11.83;8.00;;;;;20.30;101064.00;;;;2063265;28;20230;-74
2023/05/04 04:03:54;;;;;;;11.97;8.93;;;;;20.30;101062.00;;;;2058822;28;20221;-74
2023/05/04 04:04:55;;;;;;;11.67;8.30;;;;;20.30;101062.00;;;;2049033;28;20261;-74
2023/05/04 04:05:56;;;;;;;12.07;8.50;;;;;20.30;101069.00;;;;2053008;28;20247;-74
2023/05/04 04:06:56;;;;;;;12.27;8.63;;;;;20.30;101066.00;;;;2052098;28;20209;-74
2023/05/04 04:07:56;;;;;;;11.03;8.00;;;;;20.30;101064.00;;;;2052795;28;20269;-74
2023/05/04 04:08:57;;;;;;;13.00;9.57;;;;;20.30;101064.00;;;;2057391;28;20228;-74
2023/05/04 04:09:57;;;;;;;12.07;8.33;;;;;20.30;101056.00;;;;2050636;28;20218;-74
2023/05/04 04:10:57;;;;;;;10.70;8.50;;;;;20.30;101065.00;;;;2052381;28;20226;-74
2023/05/04 04:11:58;;;;;;;11.17;8.40;;;;;20.30;101066.00;;;;2053855;28;20257;-74
2023/05/04 04:12:58;;;;;;;10.90;8.20;;;;;20.30;101061.00;;;;2053669;28;20214;-74
2023/05/04 04:13:58;;;;;;;12.10;8.90;;;;;20.30;101066.00;;;;2053760;28;20221;-74
2023/05/04 04:14:59;;;;;;;12.47;8.70;;;;;20.30;101065.00;;;;2053326;28;20219;-74
2023/05/04 04:15:59;;;;;;;9.37;7.63;;;;;20.30;101062.00;;;;2052331;28;20239;-74
2023/05/04 04:16:59;;;;;;;11.20;8.33;;;;;20.30;101063.00;;;;2057272;28;20221;-74
2023/05/04 04:17:59;;;;;;;11.23;8.43;;;;;20.30;101056.00;;;;2053916;28;20226;-74
2023/05/04 04:19:00;;;;;;;10.33;7.67;;;;;20.30;101055.00;;;;2053799;28;20224;-74
2023/05/04 04:20:01;;;;;;;9.00;6.90;;;;;20.30;101058.00;;;;2061084;28;20206;-74
2023/05/04 04:21:02;;;;;;;9.90;7.80;;;;;20.30;101059.00;;;;2046784;28;20463;-74
2023/05/04 04:22:02;;;;;;;9.40;7.93;;;;;20.30;101053.00;;;;2047209;28;20222;-74
2023/05/04 04:23:03;;;;;;;10.60;7.23;;;;;20.30;101052.00;;;;2053131;28;20361;-74
2023/05/04 04:24:03;;;;;;;8.33;7.07;;;;;20.30;101052.00;;;;2050219;28;20647;-74
2023/05/04 04:25:04;;;;;;;9.07;6.47;;;;;20.30;101050.00;;;;2062897;28;20605;-74
2023/05/04 04:26:07;;;;;;;9.70;7.50;;;;;20.30;101050.00;;;;2055997;28;20297;-74
2023/05/04 04:27:07;;;;;;;10.05;7.05;;;;;20.30;101042.00;;;;2050964;28;20218;-74
2023/05/04 04:28:07;;;;;;;10.27;7.63;;;;;20.20;101050.00;;;;2051883;28;20227;-74
2023/05/04 04:29:08;;;;;;;10.80;6.87;;;;;20.20;101055.00;;;;2052145;28;20207;-74
2023/05/04 04:30:09;;;;;;;7.63;6.53;;;;;20.30;101043.00;;;;2055882;28;20215;-74
2023/05/04 04:31:09;;;;;;;7.93;6.05;;;;;20.20;101049.00;;;;2051040;28;20301;-74
2023/05/04 04:32:10;;;;;;;9.80;7.20;;;;;20.30;101046.00;;;;2049516;28;20212;-74
2023/05/04 04:33:10;;;;;;;8.90;6.33;;;;;20.30;101059.00;;;;2050942;28;20266;-74
2023/05/04 04:34:11;;;;;;;11.03;7.77;;;;;20.30;101053.00;;;;2060670;28;20214;-74
2023/05/04 04:35:12;;;;;;;8.53;6.20;;;;;20.30;101053.00;;;;2056980;28;20217;-74
2023/05/04 04:36:15;;;;;;;9.57;6.60;;;;;20.30;101061.00;;;;2057284;28;20300;-74
2023/05/04 04:37:15;;;;;;;9.43;7.43;;;;;20.30;101054.00;;;;2055690;28;20213;-74
2023/05/04 04:38:16;;;;;;;9.97;7.00;;;;;20.30;101057.00;;;;2052898;28;20649;-74
2023/05/04 04:39:16;;;;;;;7.90;6.10;;;;;20.30;101054.00;;;;2053709;28;20568;-75
2023/05/04 04:40:17;;;;;;;8.50;6.37;;;;;20.30;101058.00;;;;2053591;28;20206;-75
2023/05/04 04:41:17;;;;;;;9.70;6.57;;;;;20.20;101060.00;;;;2051681;28;20227;-75
2023/05/04 04:42:18;;;;;;;10.30;6.80;;;;;20.20;101056.00;;;;2044901;28;20286;-75
2023/05/04 04:43:18;;;;;;;8.30;6.53;;;;;20.20;101057.00;;;;2047703;28;20215;-74
2023/05/04 04:44:19;;;;;;;8.80;6.50;;;;;20.20;101051.00;;;;2052440;28;20260;-74
2023/05/04 04:45:19;;;;;;;7.20;6.10;;;;;20.20;101047.00;;;;2051638;28;20215;-74
2023/05/04 04:46:20;;;;;;;6.70;6.03;;;;;20.20;101055.00;;;;2050029;28;20508;-74
2023/05/04 04:47:20;;;;;;;6.47;5.77;;;;;20.20;101056.00;;;;2054188;28;20202;-74
2023/05/04 04:48:22;;;;;;;8.97;6.73;;;;;20.20;101059.00;;;;2053206;28;20211;-74
2023/05/04 04:49:22;;;;;;;7.00;6.10;;;;;20.20;101060.00;;;;2053169;28;20559;-75
2023/05/04 04:50:23;;;;;;;9.00;5.90;;;;;20.20;101056.00;;;;2051060;28;20215;-75
2023/05/04 04:51:23;;;;;;;7.10;5.43;;;;;20.20;101048.00;;;;2052653;28;20585;-75
2023/05/04 04:52:24;;;;;;;7.90;6.17;;;;;20.30;101054.00;;;;2049319;28;20667;-74
2023/05/04 04:53:25;;;;;;;7.43;6.10;;;;;20.20;101051.00;;;;2053788;28;20235;-74